• Join FlightAware (Why Join?)
  • Login
  • US Flag 
04:22PM EDT


 

Airport Tracker/Info


-or-


 

Live Flight TrackerFlight Track Log ✈ KAP46 ✈ 21-Jun-2013 ✈ KALB - KMSS

Flight Track Log - Related Links

Times and Time Zones

All times are in EDT time to prevent confusion due to time zone crossing. See the KAP46 flight status page for this flight to view local times or setup timezone preferences in your user account.

Time Position Orientation Groundspeed Altitude Reporting Facility
EDT Latitude Longitude Course Direction KTS MPH feet Rate Location/Type
10:15AM 42.7589 -73.8058 North 104 120 900  Level Boston Center
10:17AM 42.8069 -73.8014 North 120 138 2,200 780 Climbing Boston Center
10:18AM 42.8425 -73.7936 North 121 139 3,000 720 Climbing Boston Center
10:19AM 42.8756 -73.8086 342° North 127 146 3,800 780 Climbing Boston Center
10:20AM 42.9131 -73.8264 341° North 125 144 4,600 720 Climbing Boston Center
10:21AM 42.9461 -73.8414 342° North 127 146 5,300 660 Climbing Boston Center
10:22AM 42.9814 -73.8592 340° North 131 151 6,000 540 Climbing Boston Center
10:23AM 43.0144 -73.8769 339° North 130 150 6,500 240 Climbing Boston Center
10:24AM 43.0539 -73.8950 342° North 153 176 6,500  Level Boston Center
10:25AM 43.0953 -73.9158 340° North 159 183 6,500  Level Boston Center
10:26AM 43.1450 -73.9397 341° North 161 185 6,500  Level Boston Center
10:27AM 43.1906 -73.9608 341° North 156 180 6,500  Level Boston Center
10:28AM 43.2278 -73.9817 338° Northwest 156 180 6,500  Level Boston Center
10:29AM 43.2733 -74.0028 341° North 150 173 6,500  Level Boston Center
10:30AM 43.3086 -74.0208 340° North 150 173 6,500  Level Boston Center
10:31AM 43.3542 -74.0419 341° North 150 173 6,500  Level Boston Center
10:32AM 43.3956 -74.0603 342° North 150 173 6,500  Level Boston Center
10:33AM 43.4389 -74.0814 341° North 150 173 6,500  Level Boston Center
10:34AM 43.4803 -74.1053 337° Northwest 150 173 6,600  Climbing Boston Center
10:35AM 43.5239 -74.1267 340° North 150 173 6,600  Level Boston Center
10:36AM 43.5631 -74.1478 339° North 150 173 6,600  Level Boston Center
10:37AM 43.6044 -74.1661 342° North 150 173 6,600  Level Boston Center
10:38AM 43.6458 -74.1875 339° North 150 173 6,600  Level Boston Center
10:39AM 43.6872 -74.2086 340° North 150 173 6,600  Level Boston Center
10:40AM 43.7244 -74.2269 340° North 150 173 6,600  Level Boston Center
10:41AM 43.7636 -74.2483 338° Northwest 150 173 6,600  Level Boston Center
10:42AM 43.8050 -74.2669 342° North 150 173 6,600  Level Boston Center
10:43AM 43.8464 -74.2883 340° North 150 173 6,600  Level Boston Center
10:45AM 43.8858 -74.3039 344° North 150 173 6,600 -60 Level Boston Center
10:46AM 43.9333 -74.3314 337° Northwest 150 173 6,500 -60 Descending Boston Center
10:47AM 43.9703 -74.3497 340° North 145 167 6,500  Level Boston Center
10:48AM 44.0139 -74.3714 340° North 152 175 6,500  Level Boston Center
10:49AM 44.0511 -74.3900 340° North 147 169 6,500  Level Boston Center
10:50AM 44.0922 -74.4114 340° North 147 169 6,500  Level Boston Center
10:51AM 44.1336 -74.4303 342° North 147 169 6,500  Level Boston Center
10:52AM 44.1728 -74.4547 336° Northwest 147 169 6,500  Level Boston Center
10:53AM 44.2122 -74.4706 344° North 147 169 6,500  Level Boston Center
10:54AM 44.2514 -74.4950 336° Northwest 147 169 6,500  Level Boston Center
10:55AM 44.2906 -74.5108 344° North 147 169 6,500  Level Boston Center
10:56AM 44.3319 -74.5328 339° North 147 169 6,500  Level Boston Center
10:57AM 44.3731 -74.5544 339° North 147 169 6,500  Level Boston Center
10:58AM 44.4125 -74.5733 341° North 147 169 6,500 -60 Level Boston Center
10:59AM 44.4536 -74.5922 342° North 147 169 6,400 -300 Descending Boston Center
11:00AM 44.4969 -74.6172 338° Northwest 147 169 5,900 -480 Descending Boston Center
11:01AM 44.5403 -74.6392 340° North 153 176 5,500 -480 Descending Boston Center
11:02AM 44.5836 -74.6611 340° North 158 182 5,000 -420 Descending Boston Center
11:03AM 44.6292 -74.6861 339° North 158 182 4,700 -300 Descending Boston Center